Time;durP1;ratioP1;P1;durP2;ratioP2;P2;SDS_P1;SDS_P2;PMS_P1;PMS_P2;Temp;Humidity;BMP_temperature;BMP_pressure;BME280_temperature;BME280_humidity;BME280_pressure;Samples;Min_cycle;Max_cycle;Signal;HPM_P1;HPM_P2
2023/07/21 00:01:53;;;;;;;4.07;3.67;;;24.90;93.30;;;;;;5088008;28;20570;-75
2023/07/21 00:04:20;;;;;;;8.43;4.03;;;24.90;92.90;;;;;;5087463;28;20861;-77
2023/07/21 00:06:46;;;;;;;5.07;4.20;;;24.90;92.80;;;;;;5087740;28;20424;-77
2023/07/21 00:09:12;;;;;;;6.60;4.30;;;24.90;93.30;;;;;;5087214;28;20514;-76
2023/07/21 00:11:39;;;;;;;5.93;3.90;;;24.80;92.90;;;;;;5086363;28;20214;-75
2023/07/21 00:14:10;;;;;;;6.50;4.13;;;24.80;92.90;;;;;;5087173;28;20540;-77
2023/07/21 00:16:35;;;;;;;5.73;4.03;;;24.70;93.40;;;;;;5085814;28;20467;-75
2023/07/21 00:19:06;;;;;;;5.67;3.73;;;24.70;93.30;;;;;;5087527;28;20514;-77
2023/07/21 00:21:32;;;;;;;8.50;4.57;;;24.70;93.70;;;;;;5085659;28;20185;-75
2023/07/21 00:23:58;;;;;;;5.67;4.23;;;24.70;93.90;;;;;;5087317;28;20756;-75
2023/07/21 00:26:24;;;;;;;5.73;4.30;;;24.60;94.10;;;;;;5087368;28;20517;-76
2023/07/21 00:28:50;;;;;;;4.47;3.77;;;24.50;93.90;;;;;;5085557;28;20354;-75
2023/07/21 00:31:16;;;;;;;7.10;4.43;;;24.50;94.20;;;;;;5087116;28;20430;-76
2023/07/21 00:33:41;;;;;;;5.70;4.53;;;24.40;94.20;;;;;;5085465;28;20434;-75
2023/07/21 00:36:08;;;;;;;8.03;4.57;;;24.40;94.10;;;;;;5085289;28;20269;-74
2023/07/21 00:38:34;;;;;;;4.57;4.17;;;24.40;94.40;;;;;;5087011;28;20193;-76
2023/07/21 00:41:00;;;;;;;4.63;4.23;;;24.30;94.50;;;;;;5087167;28;20478;-77
2023/07/21 00:43:26;;;;;;;4.33;3.70;;;24.30;94.60;;;;;;5085979;28;20853;-77
2023/07/21 00:45:52;;;;;;;4.40;3.70;;;24.30;94.70;;;;;;5086681;28;20494;-76
2023/07/21 00:48:18;;;;;;;10.37;6.40;;;24.20;95.00;;;;;;5085323;28;20497;-75
2023/07/21 00:50:52;;;;;;;5.60;4.30;;;24.20;94.90;;;;;;5086938;28;20419;-75
2023/07/21 00:53:19;;;;;;;5.00;4.20;;;24.10;94.80;;;;;;5086983;28;20440;-77
2023/07/21 00:55:47;;;;;;;5.20;4.10;;;24.00;95.20;;;;;;5086550;28;20554;-77
2023/07/21 00:58:13;;;;;;;6.90;4.50;;;24.00;95.50;;;;;;5086810;28;20496;-77
2023/07/21 01:00:40;;;;;;;7.23;4.30;;;24.00;95.50;;;;;;5086658;28;20478;-75
2023/07/21 01:03:09;;;;;;;5.27;4.17;;;24.00;95.70;;;;;;5085057;28;20505;-77
2023/07/21 01:05:38;;;;;;;4.80;4.10;;;24.10;95.40;;;;;;5084766;28;20521;-75
2023/07/21 01:08:04;;;;;;;5.90;4.03;;;24.10;95.30;;;;;;5086691;28;20840;-77
2023/07/21 01:10:36;;;;;;;5.87;4.20;;;24.00;95.60;;;;;;5084821;28;20418;-76
2023/07/21 01:13:03;;;;;;;9.10;4.70;;;24.00;95.50;;;;;;5086321;28;20416;-75
2023/07/21 01:15:30;;;;;;;4.80;3.90;;;23.90;96.00;;;;;;5084000;28;20473;-75
2023/07/21 01:17:57;;;;;;;4.43;4.03;;;23.90;96.00;;;;;;5086381;28;20477;-77
2023/07/21 01:20:27;;;;;;;10.63;4.97;;;23.90;96.10;;;;;;5084262;28;20843;-75
2023/07/21 01:23:00;;;;;;;11.00;4.67;;;23.90;95.90;;;;;;5086150;28;20717;-75
2023/07/21 01:25:28;;;;;;;4.37;3.97;;;23.90;96.00;;;;;;5085405;28;20419;-77
2023/07/21 01:27:55;;;;;;;5.50;4.83;;;23.90;96.60;;;;;;5084726;28;20429;-77
2023/07/21 01:30:21;;;;;;;6.10;5.43;;;23.90;96.50;;;;;;5084494;28;21060;-77
2023/07/21 01:32:49;;;;;;;8.20;5.10;;;23.90;96.50;;;;;;5084698;28;20459;-77
2023/07/21 01:35:17;;;;;;;7.27;5.17;;;23.90;96.60;;;;;;5084043;28;20494;-75
2023/07/21 01:37:44;;;;;;;7.50;4.60;;;23.80;96.30;;;;;;5085916;28;20661;-77
2023/07/21 01:40:13;;;;;;;5.47;4.80;;;23.80;96.60;;;;;;5084098;28;20883;-75
2023/07/21 01:42:41;;;;;;;9.27;4.87;;;23.90;95.80;;;;;;5084548;28;20999;-75
2023/07/21 01:45:07;;;;;;;5.60;4.33;;;23.90;95.90;;;;;;5085535;28;20418;-76
2023/07/21 01:47:34;;;;;;;4.97;4.57;;;23.90;96.10;;;;;;5084745;28;20804;-74
2023/07/21 01:50:00;;;;;;;8.30;5.40;;;23.90;96.10;;;;;;5085514;28;20542;-77
2023/07/21 01:52:32;;;;;;;8.70;4.47;;;23.90;95.90;;;;;;5084316;28;20427;-76
2023/07/21 01:55:15;;;;;;;6.83;4.20;;;24.00;95.60;;;;;;5085574;28;21063;-75
2023/07/21 01:57:50;;;;;;;4.67;3.83;;;24.00;95.70;;;;;;5085995;28;20963;-74
2023/07/21 02:00:16;;;;;;;6.07;4.60;;;24.00;95.70;;;;;;5085250;28;20470;-77
2023/07/21 02:02:47;;;;;;;6.33;4.33;;;24.00;96.10;;;;;;5084013;28;20422;-75
2023/07/21 02:05:20;;;;;;;5.23;4.73;;;24.00;96.20;;;;;;5084992;28;20418;-77
2023/07/21 02:07:46;;;;;;;7.83;4.57;;;24.00;96.40;;;;;;5084598;28;20429;-75
2023/07/21 02:10:12;;;;;;;7.10;5.63;;;24.00;95.70;;;;;;5083744;28;20442;-75
2023/07/21 02:12:38;;;;;;;6.83;4.90;;;24.00;95.50;;;;;;5085741;28;20336;-77
2023/07/21 02:15:05;;;;;;;5.30;4.60;;;24.00;95.50;;;;;;5084763;28;20233;-76
2023/07/21 02:17:33;;;;;;;5.33;4.40;;;24.00;95.50;;;;;;5085598;28;20414;-76
2023/07/21 02:19:59;;;;;;;7.87;4.53;;;24.00;95.70;;;;;;5085260;28;21009;-77
2023/07/21 02:22:24;;;;;;;5.50;4.90;;;24.00;95.80;;;;;;5085036;28;20414;-77
2023/07/21 02:24:50;;;;;;;6.30;4.73;;;24.00;95.70;;;;;;5084682;28;20208;-74
2023/07/21 02:27:16;;;;;;;5.63;4.80;;;24.00;96.20;;;;;;5085188;28;20441;-77
2023/07/21 02:29:46;;;;;;;11.47;5.03;;;24.00;96.00;;;;;;5085149;28;20177;-76
2023/07/21 02:32:11;;;;;;;5.47;4.20;;;24.00;95.70;;;;;;5084923;28;20187;-76
2023/07/21 02:34:39;;;;;;;9.23;4.47;;;24.00;95.60;;;;;;5083449;28;20434;-76
2023/07/21 02:37:05;;;;;;;6.30;4.57;;;24.00;95.60;;;;;;5085045;28;20189;-77
2023/07/21 02:39:31;;;;;;;5.03;4.27;;;24.00;95.60;;;;;;5084747;28;20501;-75
2023/07/21 02:41:56;;;;;;;6.90;5.10;;;24.00;95.50;;;;;;5084815;28;20429;-76
2023/07/21 02:44:22;;;;;;;8.53;4.73;;;24.00;95.60;;;;;;5082905;28;20767;-75
2023/07/21 02:46:47;;;;;;;8.73;5.00;;;24.10;95.90;;;;;;5084033;28;20277;-77
2023/07/21 02:49:13;;;;;;;6.63;4.50;;;24.00;96.10;;;;;;5084503;28;20319;-74
2023/07/21 02:51:39;;;;;;;5.33;4.67;;;24.00;95.90;;;;;;5084931;28;20214;-75
2023/07/21 02:54:05;;;;;;;5.83;4.70;;;23.90;95.90;;;;;;5083294;28;20419;-77
2023/07/21 02:56:32;;;;;;;6.47;4.50;;;24.00;95.70;;;;;;5084419;28;20178;-75
2023/07/21 02:58:58;;;;;;;5.37;4.37;;;24.00;95.70;;;;;;5083088;28;20175;-75
2023/07/21 03:01:23;;;;;;;6.80;4.90;;;24.00;95.60;;;;;;5083256;28;20853;-75
2023/07/21 03:03:54;;;;;;;11.80;5.10;;;24.00;95.80;;;;;;5084446;28;20230;-75
2023/07/21 03:06:20;;;;;;;5.60;4.70;;;24.10;96.00;;;;;;5084709;28;20182;-75
2023/07/21 03:08:45;;;;;;;5.20;4.37;;;24.10;95.80;;;;;;5084675;28;20934;-77
2023/07/21 03:11:13;;;;;;;7.30;4.73;;;24.20;95.70;;;;;;5084788;28;20413;-75
2023/07/21 03:13:41;;;;;;;7.40;4.87;;;24.20;95.80;;;;;;5084699;28;20746;-75
2023/07/21 03:16:07;;;;;;;5.57;5.00;;;24.30;95.80;;;;;;5083193;28;20528;-74
2023/07/21 03:18:33;;;;;;;9.43;4.93;;;24.40;95.70;;;;;;5084657;28;20438;-77
2023/07/21 03:22:44;;;;;;;5.33;4.83;;;24.50;95.20;;;;;;5132436;27;20593;-76
2023/07/21 03:25:13;;;;;;;11.80;5.90;;;24.40;95.40;;;;;;5124417;27;20487;-76
2023/07/21 03:27:39;;;;;;;8.80;5.00;;;24.40;95.70;;;;;;5123935;27;20529;-76
2023/07/21 03:30:12;;;;;;;9.07;5.53;;;24.30;96.00;;;;;;5123933;27;20792;-74
2023/07/21 03:32:38;;;;;;;10.07;5.20;;;24.20;96.10;;;;;;5139623;27;20463;-76
2023/07/21 03:35:05;;;;;;;10.33;4.90;;;24.10;95.90;;;;;;5123485;28;20402;-74
2023/07/21 03:37:34;;;;;;;6.30;4.27;;;24.10;95.90;;;;;;5123713;27;20529;-76
2023/07/21 03:40:07;;;;;;;5.43;4.93;;;24.20;95.80;;;;;;5123775;28;20471;-74
2023/07/21 03:42:34;;;;;;;7.17;4.73;;;24.30;95.80;;;;;;5122797;27;20503;-76
2023/07/21 03:45:06;;;;;;;5.33;4.83;;;24.40;95.70;;;;;;5123286;27;20930;-76
2023/07/21 03:47:33;;;;;;;15.83;5.40;;;24.40;95.60;;;;;;5138163;27;20486;-76
2023/07/21 03:49:58;;;;;;;7.73;5.10;;;24.40;95.90;;;;;;5123171;27;20414;-76
2023/07/21 03:52:24;;;;;;;8.27;5.27;;;24.50;95.60;;;;;;5123074;27;20523;-75
2023/07/21 03:54:50;;;;;;;10.27;6.57;;;24.50;95.60;;;;;;5123189;28;20181;-76
2023/07/21 03:57:16;;;;;;;8.50;5.50;;;24.50;95.90;;;;;;5139070;27;20441;-75
2023/07/21 03:59:42;;;;;;;7.60;5.20;;;24.50;96.30;;;;;;5122656;27;20176;-75
2023/07/21 04:02:08;;;;;;;7.93;5.43;;;24.40;96.50;;;;;;5122503;27;20214;-77
2023/07/21 04:04:34;;;;;;;11.98;5.60;;;24.40;96.60;;;;;;5138575;27;21139;-76
2023/07/21 04:07:05;;;;;;;8.17;6.00;;;24.40;96.90;;;;;;5122501;27;20449;-78
2023/07/21 04:09:34;;;;;;;9.93;7.13;;;24.40;97.10;;;;;;5139205;27;20178;-78
2023/07/21 04:12:01;;;;;;;8.47;5.47;;;24.40;97.10;;;;;;5123082;27;20688;-76
2023/07/21 04:14:27;;;;;;;12.37;5.73;;;24.60;96.80;;;;;;5122996;28;20684;-78
2023/07/21 04:16:53;;;;;;;11.10;5.90;;;24.70;96.40;;;;;;5121680;27;20443;-78
2023/07/21 04:19:20;;;;;;;12.73;6.17;;;24.90;96.30;;;;;;5138401;27;20217;-77
2023/07/21 04:21:47;;;;;;;13.13;6.17;;;25.10;96.10;;;;;;5121580;27;20466;-79
2023/07/21 04:24:13;;;;;;;13.97;6.20;;;25.20;96.00;;;;;;5121856;27;20439;-78
2023/07/21 04:26:39;;;;;;;9.50;6.23;;;25.40;95.80;;;;;;5121137;27;20450;-78
2023/07/21 04:29:06;;;;;;;17.80;7.50;;;25.50;95.60;;;;;;5118896;27;20423;-78
2023/07/21 04:31:31;;;;;;;15.07;6.90;;;25.60;95.20;;;;;;5121558;27;20180;-78
2023/07/21 04:33:58;;;;;;;13.70;6.40;;;25.60;95.20;;;;;;5109336;28;20954;-78
2023/07/21 04:36:24;;;;;;;8.70;5.40;;;25.60;95.80;;;;;;5107201;28;20659;-79
2023/07/21 04:38:49;;;;;;;10.67;5.80;;;25.70;95.70;;;;;;5106945;28;20420;-78
2023/07/21 04:41:16;;;;;;;8.50;5.00;;;25.80;95.70;;;;;;5108429;28;20218;-77
2023/07/21 04:43:43;;;;;;;6.90;5.20;;;25.90;95.40;;;;;;5108562;28;20677;-78
2023/07/21 04:46:10;;;;;;;8.67;5.20;;;26.00;95.40;;;;;;5108426;28;20415;-79
2023/07/21 04:48:36;;;;;;;6.33;5.23;;;26.10;94.80;;;;;;5106995;28;20427;-79
2023/07/21 04:51:04;;;;;;;5.80;4.50;;;26.20;94.90;;;;;;5107990;28;20453;-78
2023/07/21 04:53:30;;;;;;;12.90;7.93;;;26.30;94.50;;;;;;5106624;28;20424;-79
2023/07/21 04:55:59;;;;;;;11.30;7.07;;;26.40;94.50;;;;;;5108211;28;20936;-79
2023/07/21 04:58:25;;;;;;;8.97;5.10;;;26.60;94.60;;;;;;5105203;28;20451;-78
2023/07/21 05:00:51;;;;;;;9.13;4.87;;;26.70;94.40;;;;;;5106535;28;20461;-79
2023/07/21 05:03:17;;;;;;;11.90;5.20;;;26.80;94.60;;;;;;5107965;28;20279;-77
2023/07/21 05:05:45;;;;;;;5.03;4.63;;;27.00;94.20;;;;;;5108371;28;20510;-78
2023/07/21 05:08:11;;;;;;;11.90;5.07;;;27.20;94.10;;;;;;5097289;28;20712;-79
2023/07/21 05:10:37;;;;;;;7.33;4.90;;;27.40;94.30;;;;;;5096990;28;20428;-77
2023/07/21 05:13:05;;;;;;;8.27;4.40;;;27.40;94.90;;;;;;5093886;28;20475;-77
2023/07/21 05:15:36;;;;;;;6.00;4.73;;;27.70;94.60;;;;;;5093095;28;20204;-79
2023/07/21 05:18:05;;;;;;;6.67;4.60;;;27.80;94.80;;;;;;5096638;28;21060;-79
2023/07/21 05:20:31;;;;;;;10.20;4.47;;;27.90;95.20;;;;;;5105464;28;21059;-77
2023/07/21 05:22:56;;;;;;;4.73;4.30;;;28.00;94.20;;;;;;5104331;28;20523;-77
2023/07/21 05:25:22;;;;;;;6.57;4.70;;;28.20;94.00;;;;;;5104124;28;20175;-77
2023/07/21 05:27:48;;;;;;;7.13;4.60;;;28.20;93.80;;;;;;5103419;28;20694;-77
2023/07/21 05:30:14;;;;;;;8.00;5.33;;;28.40;93.90;;;;;;5100716;28;20199;-79
2023/07/21 05:32:41;;;;;;;11.17;5.43;;;28.50;93.20;;;;;;5103747;28;20459;-79
2023/07/21 05:35:13;;;;;;;4.30;3.80;;;28.60;92.80;;;;;;5100291;28;20202;-79
2023/07/21 05:37:39;;;;;;;4.70;4.27;;;28.70;92.60;;;;;;5117896;27;21009;-77
2023/07/21 05:40:06;;;;;;;5.03;4.53;;;28.80;92.20;;;;;;5102405;28;20454;-78
2023/07/21 05:42:31;;;;;;;5.63;4.07;;;28.70;92.10;;;;;;5104821;28;20224;-79
2023/07/21 05:44:57;;;;;;;6.67;5.03;;;28.70;92.20;;;;;;5104118;28;20449;-77
2023/07/21 05:47:23;;;;;;;4.60;4.20;;;28.80;92.50;;;;;;5105355;28;20725;-79
2023/07/21 05:49:48;;;;;;;5.40;4.80;;;28.90;92.60;;;;;;5103078;28;20199;-79
2023/07/21 05:52:14;;;;;;;8.37;4.80;;;29.00;92.20;;;;;;5099929;28;20687;-77
2023/07/21 05:54:41;;;;;;;7.13;4.80;;;29.00;92.20;;;;;;5103207;28;20164;-78
2023/07/21 05:57:07;;;;;;;9.23;5.07;;;29.10;92.10;;;;;;5107527;27;20208;-79
2023/07/21 05:59:33;;;;;;;8.17;4.50;;;29.20;92.10;;;;;;5081576;28;20417;-78
2023/07/21 06:01:59;;;;;;;5.63;4.77;;;29.30;92.10;;;;;;5089407;28;20515;-79
2023/07/21 06:04:25;;;;;;;7.37;4.37;;;29.30;91.80;;;;;;5101638;28;20176;-79
2023/07/21 06:06:50;;;;;;;6.83;4.30;;;29.40;91.80;;;;;;5099690;28;20812;-79
2023/07/21 06:09:17;;;;;;;7.03;4.43;;;29.50;91.90;;;;;;5095510;28;20184;-79
2023/07/21 06:11:43;;;;;;;8.33;3.90;;;29.60;92.00;;;;;;5094915;28;20604;-77
2023/07/21 06:14:08;;;;;;;6.63;4.00;;;29.60;91.80;;;;;;5099277;28;20431;-78
2023/07/21 06:16:34;;;;;;;6.10;4.13;;;29.60;91.50;;;;;;5101654;28;20207;-80
2023/07/21 06:19:00;;;;;;;7.00;4.70;;;29.50;92.00;;;;;;5103941;28;20176;-78
2023/07/21 06:21:26;;;;;;;8.43;4.53;;;29.60;92.10;;;;;;5102355;28;20228;-77
2023/07/21 06:23:53;;;;;;;7.53;4.23;;;29.60;91.80;;;;;;5100776;28;20442;-78
2023/07/21 06:26:19;;;;;;;5.73;4.20;;;29.60;92.20;;;;;;5091792;28;20259;-78
2023/07/21 06:28:45;;;;;;;7.50;4.37;;;29.80;92.20;;;;;;5099988;28;20750;-79
2023/07/21 06:31:11;;;;;;;7.10;4.50;;;29.80;92.10;;;;;;5100625;28;20793;-79
2023/07/21 06:33:38;;;;;;;5.97;4.50;;;29.90;92.10;;;;;;5102204;28;20229;-77
2023/07/21 06:36:04;;;;;;;5.07;4.27;;;30.10;91.60;;;;;;5102884;28;20427;-78
2023/07/21 06:38:30;;;;;;;9.40;4.57;;;30.20;91.60;;;;;;5101494;28;21066;-77
2023/07/21 06:40:56;;;;;;;4.53;4.03;;;30.40;91.50;;;;;;5083728;28;20472;-77
2023/07/21 06:43:22;;;;;;;9.50;4.70;;;30.60;91.20;;;;;;5097130;28;21104;-80
2023/07/21 06:45:48;;;;;;;4.87;4.27;;;30.70;91.20;;;;;;5097069;28;20430;-80
2023/07/21 06:48:13;;;;;;;5.40;3.90;;;30.90;90.90;;;;;;5093843;28;20278;-79
2023/07/21 06:50:39;;;;;;;11.80;5.67;;;30.90;91.00;;;;;;5091561;28;20613;-77
2023/07/21 06:53:05;;;;;;;6.43;4.37;;;30.90;90.30;;;;;;5097796;28;20218;-79
2023/07/21 06:55:34;;;;;;;6.60;4.07;;;30.90;90.80;;;;;;5106119;27;20191;-79
2023/07/21 06:58:01;;;;;;;8.30;4.40;;;31.00;90.50;;;;;;5096933;28;20740;-80
2023/07/21 07:00:26;;;;;;;6.17;4.10;;;31.00;90.40;;;;;;5099323;28;20918;-76
2023/07/21 07:02:56;;;;;;;8.30;4.07;;;31.10;89.90;;;;;;5099572;28;20462;-77
2023/07/21 07:05:23;;;;;;;5.83;4.00;;;31.00;90.50;;;;;;5101695;28;20182;-79
2023/07/21 07:07:52;;;;;;;9.70;3.80;;;31.10;90.00;;;;;;5102823;28;20429;-77
2023/07/21 07:10:18;;;;;;;8.53;4.27;;;31.20;89.80;;;;;;5094988;28;20434;-80
2023/07/21 07:12:43;;;;;;;7.77;4.10;;;31.30;90.10;;;;;;5099886;28;20455;-80
2023/07/21 07:15:10;;;;;;;7.77;4.30;;;31.50;89.60;;;;;;5097500;28;21009;-77
2023/07/21 07:17:36;;;;;;;4.87;4.30;;;31.70;89.80;;;;;;5101212;28;20446;-80
2023/07/21 07:20:04;;;;;;;4.83;4.33;;;31.80;89.50;;;;;;5099634;28;20424;-77
2023/07/21 07:22:30;;;;;;;6.67;3.57;;;31.90;86.50;;;;;;5098227;28;20582;-77
2023/07/21 07:24:56;;;;;;;5.83;3.90;;;31.80;84.90;;;;;;5093102;28;20945;-77
2023/07/21 07:27:22;;;;;;;5.33;4.00;;;31.90;86.50;;;;;;5090870;28;20543;-79
2023/07/21 07:29:48;;;;;;;7.10;3.50;;;31.90;87.20;;;;;;5093961;28;20183;-77
2023/07/21 07:32:14;;;;;;;4.00;3.70;;;32.00;84.80;;;;;;5095054;28;20762;-77
2023/07/21 07:34:41;;;;;;;3.77;3.47;;;32.00;84.40;;;;;;5092952;28;20423;-79
2023/07/21 07:37:06;;;;;;;3.80;3.37;;;32.00;84.90;;;;;;5110123;27;20881;-77
2023/07/21 07:39:32;;;;;;;6.07;5.47;;;32.10;85.00;;;;;;5097345;28;20478;-79
2023/07/21 07:41:58;;;;;;;4.57;3.60;;;32.10;85.10;;;;;;5093726;28;20510;-77
2023/07/21 07:44:24;;;;;;;4.30;3.13;;;32.20;85.70;;;;;;5096484;28;20171;-79
2023/07/21 07:46:54;;;;;;;4.57;3.90;;;32.40;84.70;;;;;;5097096;28;20385;-79
2023/07/21 07:49:20;;;;;;;3.53;3.23;;;32.50;83.00;;;;;;5090641;28;20750;-80
2023/07/21 07:51:46;;;;;;;5.70;3.83;;;32.60;83.80;;;;;;5103226;28;20475;-79
2023/07/21 07:54:11;;;;;;;3.70;3.40;;;32.70;82.00;;;;;;5094704;28;20198;-77
2023/07/21 07:56:38;;;;;;;4.20;3.37;;;32.70;80.80;;;;;;5107499;28;20180;-80
2023/07/21 07:59:04;;;;;;;3.97;3.03;;;32.70;79.80;;;;;;5089065;28;20256;-77
2023/07/21 08:01:29;;;;;;;4.23;3.70;;;32.80;78.50;;;;;;5090602;28;20468;-79
2023/07/21 08:03:55;;;;;;;4.93;2.83;;;32.90;79.90;;;;;;5093808;28;20777;-80
2023/07/21 08:06:22;;;;;;;4.77;3.13;;;33.00;80.60;;;;;;5077099;28;20648;-79
2023/07/21 08:08:48;;;;;;;5.17;3.50;;;33.10;79.70;;;;;;5081378;28;20809;-77
2023/07/21 08:11:13;;;;;;;6.37;3.73;;;33.20;77.70;;;;;;5080388;28;20433;-77
2023/07/21 08:13:40;;;;;;;3.50;3.20;;;33.20;78.90;;;;;;5078296;28;20450;-77
2023/07/21 08:16:13;;;;;;;6.00;3.80;;;33.30;79.90;;;;;;5081924;28;20254;-79
2023/07/21 08:18:40;;;;;;;5.97;3.70;;;33.40;80.00;;;;;;5080210;28;20468;-80
2023/07/21 08:21:20;;;;;;;4.10;3.57;;;33.40;80.60;;;;;;5080201;28;20594;-79
2023/07/21 08:23:46;;;;;;;3.50;3.00;;;33.50;80.30;;;;;;5090396;28;20214;-77
2023/07/21 08:26:12;;;;;;;4.03;3.63;;;33.70;78.90;;;;;;5086237;28;21045;-77
2023/07/21 08:28:37;;;;;;;6.53;3.30;;;33.70;81.60;;;;;;5107438;27;20451;-76
2023/07/21 08:31:03;;;;;;;6.00;3.30;;;33.80;78.60;;;;;;5101394;28;20184;-77
2023/07/21 08:33:29;;;;;;;6.07;4.93;;;33.80;79.10;;;;;;5099459;28;20923;-79
2023/07/21 08:35:54;;;;;;;6.13;5.43;;;33.80;78.60;;;;;;5102263;28;20467;-78
2023/07/21 08:38:20;;;;;;;4.63;3.57;;;33.90;80.90;;;;;;5103558;28;20231;-80
2023/07/21 08:40:55;;;;;;;3.57;3.27;;;33.80;79.10;;;;;;5102936;28;20306;-80
2023/07/21 08:43:21;;;;;;;4.63;3.73;;;34.00;79.10;;;;;;5102670;28;20353;-78
2023/07/21 08:45:49;;;;;;;7.60;3.30;;;34.10;76.90;;;;;;5094867;28;21049;-77
2023/07/21 08:48:17;;;;;;;3.80;3.50;;;34.00;77.20;;;;;;5098442;28;20441;-77
2023/07/21 08:50:47;;;;;;;4.20;3.40;;;34.10;76.40;;;;;;5096357;28;20783;-77
2023/07/21 08:53:13;;;;;;;5.23;3.00;;;34.10;76.40;;;;;;5100686;28;20448;-77
2023/07/21 08:55:39;;;;;;;3.20;3.00;;;34.20;76.10;;;;;;5101318;28;20443;-77
2023/07/21 08:58:06;;;;;;;3.00;2.70;;;34.10;79.90;;;;;;5096514;28;20207;-79
2023/07/21 09:00:32;;;;;;;3.47;2.70;;;34.30;78.70;;;;;;5112593;27;20720;-78
2023/07/21 09:03:03;;;;;;;3.13;2.90;;;34.40;78.70;;;;;;5121972;27;20454;-77
2023/07/21 09:05:29;;;;;;;3.17;2.87;;;34.50;73.80;;;;;;5115794;27;20436;-80
2023/07/21 09:07:54;;;;;;;3.20;2.63;;;34.50;77.00;;;;;;5123188;27;20435;-79
2023/07/21 09:10:30;;;;;;;3.80;2.70;;;34.60;78.00;;;;;;5120585;27;21112;-77
2023/07/21 09:12:56;;;;;;;4.50;3.10;;;34.70;75.80;;;;;;5112746;27;20203;-79
2023/07/21 09:15:21;;;;;;;4.83;2.73;;;34.80;75.60;;;;;;5085320;28;20431;-78
2023/07/21 09:17:48;;;;;;;6.83;2.70;;;34.90;73.70;;;;;;5091380;28;20195;-79
2023/07/21 09:20:18;;;;;;;3.90;3.33;;;34.90;72.70;;;;;;5103052;28;20571;-79
2023/07/21 09:22:49;;;;;;;3.03;2.73;;;34.90;77.30;;;;;;5103558;28;20506;-79
2023/07/21 09:25:24;;;;;;;3.90;3.00;;;34.80;75.80;;;;;;5103826;28;20452;-80
2023/07/21 09:27:55;;;;;;;5.47;2.93;;;34.90;75.90;;;;;;5102534;28;20448;-79
2023/07/21 09:30:21;;;;;;;3.10;2.80;;;35.10;74.60;;;;;;5120070;27;20461;-77
2023/07/21 09:32:46;;;;;;;6.27;2.70;;;35.20;72.30;;;;;;5103337;28;20436;-77
2023/07/21 09:35:12;;;;;;;3.63;2.80;;;35.30;72.20;;;;;;5101303;28;20396;-79
2023/07/21 09:37:38;;;;;;;8.40;3.77;;;35.40;71.30;;;;;;5097742;28;20207;-80
2023/07/21 09:40:10;;;;;;;4.73;2.80;;;35.40;74.30;;;;;;5096476;28;20228;-79
2023/07/21 09:42:37;;;;;;;5.60;2.60;;;35.30;70.40;;;;;;5101894;28;20230;-77
2023/07/21 09:45:03;;;;;;;3.17;2.67;;;35.30;69.40;;;;;;5099218;28;20509;-77
2023/07/21 09:47:29;;;;;;;2.83;2.63;;;35.10;67.50;;;;;;5100306;28;20458;-80
2023/07/21 09:49:58;;;;;;;4.23;2.77;;;35.00;69.50;;;;;;5099904;28;20425;-77
2023/07/21 09:52:26;;;;;;;3.30;2.70;;;35.00;69.50;;;;;;5089407;28;20377;-80
2023/07/21 09:55:06;;;;;;;3.40;2.77;;;35.10;69.10;;;;;;5082836;28;20559;-77
2023/07/21 09:57:40;;;;;;;2.60;2.40;;;35.00;74.20;;;;;;5093038;28;20455;-78
2023/07/21 10:00:13;;;;;;;2.80;2.60;;;35.10;69.00;;;;;;5111935;27;20424;-80
2023/07/21 10:02:45;;;;;;;5.30;2.90;;;35.10;68.40;;;;;;5096177;28;20488;-79
2023/07/21 10:05:10;;;;;;;3.00;2.80;;;35.00;69.70;;;;;;5100132;28;20421;-77
2023/07/21 10:07:39;;;;;;;2.67;2.47;;;35.00;73.00;;;;;;5103309;28;20675;-77
2023/07/21 10:10:07;;;;;;;2.50;2.30;;;35.00;73.70;;;;;;5103035;28;20742;-77
2023/07/21 10:12:41;;;;;;;6.57;2.90;;;35.30;69.50;;;;;;5101674;28;20456;-79
2023/07/21 10:15:17;;;;;;;3.07;2.77;;;35.30;70.40;;;;;;5100948;27;20411;-79
2023/07/21 10:17:58;;;;;;;3.73;3.03;;;35.30;69.00;;;;;;5100783;28;20481;-77
2023/07/21 10:20:50;;;;;;;4.30;3.00;;;35.10;69.00;;;;;;5094459;28;20435;-79
2023/07/21 10:23:23;;;;;;;3.97;3.30;;;34.90;70.10;;;;;;5099487;28;20444;-79
2023/07/21 10:26:16;;;;;;;5.23;2.90;;;35.10;70.00;;;;;;5088141;28;20436;-79
2023/07/21 10:28:44;;;;;;;3.27;2.97;;;35.10;70.80;;;;;;5088000;28;20501;-78
2023/07/21 10:31:22;;;;;;;3.33;3.10;;;35.10;69.70;;;;;;5089924;28;20428;-77
2023/07/21 10:34:04;;;;;;;4.67;2.90;;;35.10;70.10;;;;;;5095313;28;20455;-78
2023/07/21 10:36:51;;;;;;;4.07;3.10;;;35.20;69.90;;;;;;5080833;28;20445;-77
2023/07/21 10:39:26;;;;;;;3.77;3.00;;;35.40;72.20;;;;;;5087808;28;20608;-79
2023/07/21 10:42:03;;;;;;;4.43;3.23;;;35.50;70.00;;;;;;5090320;28;20492;-79
2023/07/21 10:44:40;;;;;;;3.80;3.50;;;35.50;70.40;;;;;;5090851;28;20628;-77
2023/07/21 10:47:11;;;;;;;4.80;3.40;;;35.60;70.40;;;;;;5083644;28;20791;-77
2023/07/21 10:49:36;;;;;;;4.97;3.47;;;35.80;69.80;;;;;;5094774;28;20172;-80
2023/07/21 10:52:02;;;;;;;3.53;3.03;;;35.80;69.10;;;;;;5094673;28;20455;-79
2023/07/21 10:54:28;;;;;;;5.13;3.47;;;35.60;69.20;;;;;;5101289;27;20181;-77
2023/07/21 10:56:53;;;;;;;3.70;2.93;;;35.50;72.10;;;;;;5093597;28;20750;-77
2023/07/21 10:59:20;;;;;;;11.13;3.60;;;35.60;71.90;;;;;;5103947;28;20176;-78
2023/07/21 11:01:51;;;;;;;7.43;2.87;;;35.50;69.70;;;;;;5098489;28;20227;-76
2023/07/21 11:04:18;;;;;;;5.47;3.40;;;35.40;69.40;;;;;;5102441;28;20481;-77
2023/07/21 11:06:53;;;;;;;6.20;3.90;;;35.30;69.90;;;;;;5112414;27;20440;-77
2023/07/21 11:09:21;;;;;;;5.47;3.90;;;35.20;71.10;;;;;;5100814;28;20932;-79
2023/07/21 11:11:57;;;;;;;5.13;3.60;;;35.20;72.10;;;;;;5096376;28;20459;-77
2023/07/21 11:14:25;;;;;;;4.10;3.00;;;35.30;70.30;;;;;;5106654;27;20455;-77
2023/07/21 11:16:52;;;;;;;8.57;3.93;;;35.40;71.80;;;;;;5092783;28;20455;-76
2023/07/21 11:19:22;;;;;;;8.43;4.20;;;35.50;73.20;;;;;;5098504;28;20408;-79
2023/07/21 11:21:48;;;;;;;11.30;3.80;;;35.50;71.60;;;;;;5095323;28;21106;-77
2023/07/21 11:24:25;;;;;;;7.57;3.73;;;35.50;71.00;;;;;;5093596;28;20913;-79
2023/07/21 11:27:13;;;;;;;6.80;3.53;;;35.60;71.10;;;;;;5097373;28;20548;-78
2023/07/21 11:29:40;;;;;;;5.10;3.97;;;35.60;71.40;;;;;;5098326;28;20436;-76
2023/07/21 11:32:19;;;;;;;4.37;3.97;;;35.60;71.60;;;;;;5094882;28;20465;-77
2023/07/21 11:34:45;;;;;;;4.10;3.30;;;35.80;71.20;;;;;;5088127;28;20499;-79
2023/07/21 11:37:14;;;;;;;7.40;4.30;;;35.70;71.40;;;;;;5093203;28;20637;-77
2023/07/21 11:39:40;;;;;;;4.73;4.13;;;35.70;72.60;;;;;;5095419;28;20427;-79
2023/07/21 11:42:08;;;;;;;5.60;3.90;;;35.50;72.80;;;;;;5096993;28;20507;-77
2023/07/21 11:44:35;;;;;;;4.50;3.77;;;35.40;73.10;;;;;;5105826;27;20444;-77
2023/07/21 11:47:10;;;;;;;5.60;4.57;;;35.30;74.10;;;;;;5082965;28;20460;-79
2023/07/21 11:49:39;;;;;;;5.00;4.50;;;35.40;73.70;;;;;;5104182;28;20896;-79
2023/07/21 11:52:07;;;;;;;5.53;4.43;;;35.60;74.10;;;;;;5102373;28;20506;-79
2023/07/21 11:54:51;;;;;;;5.70;4.43;;;35.70;74.90;;;;;;5102419;28;20967;-77
2023/07/21 11:57:18;;;;;;;10.50;5.20;;;35.50;74.40;;;;;;5106296;28;20456;-79
2023/07/21 11:59:44;;;;;;;5.03;4.53;;;35.40;74.20;;;;;;5101253;28;20426;-76
2023/07/21 12:02:14;;;;;;;5.00;4.53;;;35.10;74.70;;;;;;5104489;28;20491;-77
2023/07/21 12:04:40;;;;;;;7.90;5.07;;;35.20;74.60;;;;;;5104663;28;20435;-79
2023/07/21 12:07:08;;;;;;;6.80;5.73;;;35.30;75.20;;;;;;5098602;28;20468;-76
2023/07/21 12:09:34;;;;;;;8.60;4.90;;;35.50;76.00;;;;;;5102887;28;20665;-79
2023/07/21 12:11:59;;;;;;;5.77;4.40;;;35.50;76.30;;;;;;5100873;28;20489;-77
2023/07/21 12:14:25;;;;;;;6.17;4.73;;;35.60;75.60;;;;;;5101858;28;20292;-77
2023/07/21 12:16:55;;;;;;;7.07;5.30;;;35.70;75.60;;;;;;5101278;28;20595;-76
2023/07/21 12:19:23;;;;;;;6.97;5.13;;;35.70;77.40;;;;;;5099220;28;20409;-79
2023/07/21 12:21:48;;;;;;;9.90;5.50;;;35.60;76.40;;;;;;5099122;28;20824;-77
2023/07/21 12:24:14;;;;;;;5.47;4.47;;;35.50;77.30;;;;;;5100723;28;20427;-79
2023/07/21 12:26:40;;;;;;;5.90;5.20;;;35.40;76.50;;;;;;5100235;28;20182;-77
2023/07/21 12:29:05;;;;;;;5.87;5.17;;;35.50;76.80;;;;;;5099859;28;20280;-77
2023/07/21 12:31:31;;;;;;;10.10;5.90;;;35.60;76.60;;;;;;5102223;28;20640;-77
2023/07/21 12:33:57;;;;;;;6.63;5.77;;;35.70;77.00;;;;;;5098540;28;20660;-79
2023/07/21 12:36:23;;;;;;;6.90;6.20;;;35.60;77.50;;;;;;5093272;28;20184;-76
2023/07/21 12:38:48;;;;;;;6.50;5.83;;;35.50;78.10;;;;;;5083732;28;20441;-78
2023/07/21 12:41:14;;;;;;;5.97;5.47;;;35.60;77.80;;;;;;5089413;28;20668;-79
2023/07/21 12:43:40;;;;;;;7.33;6.10;;;35.70;77.40;;;;;;5102369;28;20700;-79
2023/07/21 12:46:06;;;;;;;9.20;6.70;;;35.90;79.40;;;;;;5106396;28;20825;-79
2023/07/21 12:48:32;;;;;;;7.47;6.77;;;35.90;79.30;;;;;;5105451;28;20227;-78
2023/07/21 12:50:58;;;;;;;8.00;6.97;;;35.80;78.90;;;;;;5103347;28;20232;-76